createdAt,value
2023-02-09T00:02:09.295Z,45.10
2023-02-09T00:04:56.892Z,48.83
2023-02-09T00:07:45.803Z,51.85
2023-02-09T00:10:33.447Z,53.35
2023-02-09T00:13:25.649Z,54.92
2023-02-09T00:16:13.206Z,57.72
2023-02-09T00:19:00.899Z,56.15
2023-02-09T00:21:49.275Z,52.72
2023-02-09T00:24:38.497Z,55.63
2023-02-09T00:27:25.938Z,53.25
2023-02-09T00:30:14.228Z,60.05
2023-02-09T00:33:01.891Z,55.30
2023-02-09T00:35:49.300Z,52.20
2023-02-09T00:38:37.660Z,53.33
2023-02-09T00:41:40.349Z,52.47
2023-02-09T00:44:29.202Z,50.03
2023-02-09T00:47:16.540Z,50.88
2023-02-09T00:50:06.783Z,53.17
2023-02-09T00:52:54.450Z,53.67
2023-02-09T00:55:41.969Z,53.13
2023-02-09T00:58:30.925Z,54.92
2023-02-09T01:01:18.645Z,58.28
2023-02-09T01:04:06.688Z,55.85
2023-02-09T01:06:54.179Z,58.30
2023-02-09T01:09:41.765Z,54.33
2023-02-09T01:12:29.845Z,53.67
2023-02-09T01:15:18.930Z,54.10
2023-02-09T01:18:07.635Z,56.75
2023-02-09T01:20:55.351Z,58.92
2023-02-09T01:23:43.081Z,60.60
2023-02-09T01:26:31.145Z,61.25
2023-02-09T01:29:20.301Z,62.63
2023-02-09T01:32:09.972Z,58.83
2023-02-09T01:34:57.981Z,55.67
2023-02-09T01:37:46.455Z,60.08
2023-02-09T01:40:35.850Z,54.92
2023-02-09T01:43:23.142Z,55.85
2023-02-09T01:46:10.835Z,56.58
2023-02-09T01:49:07.730Z,56.78
2023-02-09T01:52:00.512Z,51.65
2023-02-09T01:54:52.625Z,53.95
2023-02-09T01:57:44.015Z,51.53
2023-02-09T02:00:31.492Z,49.85
2023-02-09T02:03:22.374Z,50.72
2023-02-09T02:06:15.177Z,48.65
2023-02-09T02:09:06.510Z,49.08
2023-02-09T02:11:54.331Z,53.95
2023-02-09T02:14:42.932Z,53.35
2023-02-09T02:17:48.305Z,51.42
2023-02-09T02:21:01.471Z,53.35
2023-02-09T02:24:07.185Z,52.03
2023-02-09T02:26:59.243Z,52.15
2023-02-09T02:30:26.822Z,57.63
2023-02-09T02:33:23.623Z,54.45
2023-02-09T02:36:17.640Z,55.28
2023-02-09T02:39:10.197Z,60.38
2023-02-09T02:42:20.421Z,55.53
2023-02-09T02:45:13.309Z,58.58
2023-02-09T02:48:08.472Z,60.30
2023-02-09T02:51:01.913Z,53.92
2023-02-09T02:53:53.893Z,55.17
2023-02-09T02:56:44.299Z,53.83
2023-02-09T02:59:34.533Z,55.05
2023-02-09T03:02:26.601Z,55.72
2023-02-09T03:05:14.873Z,54.40
2023-02-09T03:08:04.063Z,54.85
2023-02-09T03:10:51.691Z,52.30
2023-02-09T03:13:47.623Z,60.55
2023-02-09T03:16:41.110Z,59.67
2023-02-09T03:19:39.503Z,54.47
2023-02-09T03:22:32.571Z,55.03
2023-02-09T03:25:26.600Z,50.22
2023-02-09T03:28:18.372Z,51.47
2023-02-09T03:31:07.172Z,51.15
2023-02-09T03:33:57.972Z,51.38
2023-02-09T03:36:46.832Z,54.90
2023-02-09T03:39:34.419Z,52.97
2023-02-09T03:42:23.438Z,54.75
2023-02-09T03:45:11.069Z,52.35
2023-02-09T03:47:58.506Z,52.35
2023-02-09T03:50:46.428Z,50.45
2023-02-09T03:53:36.453Z,51.42
2023-02-09T03:56:25.025Z,53.20
2023-02-09T03:59:14.074Z,52.83
2023-02-09T04:02:01.951Z,50.40
2023-02-09T04:04:49.649Z,50.92
2023-02-09T04:07:37.328Z,50.45
2023-02-09T04:10:24.716Z,49.20
2023-02-09T04:13:12.102Z,51.25
2023-02-09T04:16:01.117Z,48.42
2023-02-09T04:18:48.800Z,52.85
2023-02-09T04:21:36.344Z,51.47
2023-02-09T04:24:24.176Z,55.53
2023-02-09T04:27:11.910Z,54.25
2023-02-09T04:29:59.610Z,50.90
2023-02-09T04:32:48.325Z,54.03
2023-02-09T04:35:35.834Z,55.00
2023-02-09T04:38:24.188Z,50.97
2023-02-09T04:41:11.900Z,51.30
2023-02-09T04:43:59.360Z,50.83
2023-02-09T04:46:46.925Z,52.00
2023-02-09T04:49:35.838Z,46.95
2023-02-09T04:52:23.226Z,49.17
2023-02-09T04:55:10.744Z,52.33
2023-02-09T04:58:17.166Z,54.28
2023-02-09T05:01:05.657Z,53.15
2023-02-09T05:03:53.845Z,49.65
2023-02-09T05:06:42.983Z,57.15
2023-02-09T05:09:31.055Z,51.58
2023-02-09T05:12:18.801Z,54.50
2023-02-09T05:15:06.773Z,49.17
2023-02-09T05:17:54.480Z,53.85
2023-02-09T05:20:43.372Z,52.38
2023-02-09T05:23:32.772Z,52.40
2023-02-09T05:26:20.357Z,51.13
2023-02-09T05:29:08.289Z,51.20
2023-02-09T05:31:55.876Z,53.80
2023-02-09T05:34:43.344Z,47.58
2023-02-09T05:37:31.045Z,50.70
2023-02-09T05:40:20.139Z,53.30
2023-02-09T05:43:07.708Z,51.83
2023-02-09T05:45:55.065Z,50.17
2023-02-09T05:48:42.521Z,55.35
2023-02-09T05:51:29.897Z,55.20
2023-02-09T05:54:17.266Z,48.85
2023-02-09T05:57:06.895Z,54.67
2023-02-09T05:59:54.326Z,52.40
2023-02-09T06:02:41.888Z,50.17
2023-02-09T06:05:30.174Z,50.28
2023-02-09T06:08:17.707Z,49.88
2023-02-09T06:11:06.197Z,50.63
2023-02-09T06:13:54.823Z,50.45
2023-02-09T06:16:42.450Z,51.63
2023-02-09T06:19:30.707Z,52.53
2023-02-09T06:22:18.297Z,52.22
2023-02-09T06:25:06.252Z,52.92
2023-02-09T06:27:53.708Z,52.75
2023-02-09T06:30:42.764Z,55.13
2023-02-09T06:33:30.690Z,56.85
2023-02-09T06:36:17.919Z,48.53
2023-02-09T06:39:08.786Z,52.90
2023-02-09T06:41:56.238Z,48.60
2023-02-09T06:44:43.744Z,51.53
2023-02-09T06:47:32.462Z,47.75
2023-02-09T06:50:20.399Z,51.38
2023-02-09T06:53:08.260Z,48.78
2023-02-09T06:56:01.989Z,46.42
2023-02-09T06:58:49.727Z,45.65
2023-02-09T07:01:37.515Z,48.10
2023-02-09T07:04:26.513Z,47.80
2023-02-09T07:07:14.314Z,44.45
2023-02-09T07:10:02.082Z,43.30
2023-02-09T07:12:49.702Z,43.25
2023-02-09T07:15:37.478Z,43.47
2023-02-09T07:18:25.220Z,42.55
2023-02-09T07:21:18.889Z,43.60
2023-02-09T07:24:06.926Z,42.53
2023-02-09T07:26:54.632Z,40.95
2023-02-09T07:29:41.969Z,40.42
2023-02-09T07:32:29.230Z,39.75
2023-02-09T07:35:16.963Z,36.75
2023-02-09T07:38:06.062Z,37.75
2023-02-09T07:40:53.708Z,35.30
2023-02-09T07:43:41.063Z,33.55
2023-02-09T07:46:28.689Z,30.75
2023-02-09T07:49:16.119Z,26.73
2023-02-09T07:52:03.688Z,26.77
2023-02-09T07:54:52.851Z,20.50
2023-02-09T07:57:40.489Z,20.77
2023-02-09T08:00:27.882Z,16.45
2023-02-09T08:03:16.008Z,16.02
2023-02-09T08:06:06.626Z,15.93
2023-02-09T08:08:54.448Z,15.98
2023-02-09T08:11:48.144Z,14.48
2023-02-09T08:14:43.024Z,14.95
2023-02-09T08:17:30.882Z,13.95
2023-02-09T08:20:22.770Z,12.48
2023-02-09T08:23:14.353Z,12.15
2023-02-09T08:26:07.234Z,13.05
2023-02-09T08:28:56.209Z,11.25
2023-02-09T08:31:43.726Z,12.25
2023-02-09T08:34:31.122Z,13.07
2023-02-09T08:37:18.869Z,12.27
2023-02-09T08:40:07.520Z,11.20
2023-02-09T08:42:55.356Z,12.38
2023-02-09T08:45:45.390Z,10.93
2023-02-09T08:48:35.408Z,10.65
2023-02-09T08:51:23.639Z,11.60
2023-02-09T08:54:11.296Z,14.50
2023-02-09T08:56:59.090Z,11.48
2023-02-09T08:59:46.774Z,11.07
2023-02-09T09:02:36.864Z,11.88
2023-02-09T09:05:24.473Z,11.32
2023-02-09T09:08:11.980Z,9.45
2023-02-09T09:10:59.676Z,10.85
2023-02-09T09:13:48.351Z,11.18
2023-02-09T09:16:35.960Z,10.43
2023-02-09T09:19:25.327Z,11.90
2023-02-09T09:22:12.935Z,10.25
2023-02-09T09:25:00.325Z,10.88
2023-02-09T09:27:47.831Z,10.68
2023-02-09T09:30:35.732Z,11.07
2023-02-09T09:33:23.072Z,10.05
2023-02-09T09:36:12.830Z,10.60
2023-02-09T09:39:00.398Z,10.90
2023-02-09T09:41:50.070Z,10.07
2023-02-09T09:44:46.898Z,9.55
2023-02-09T09:47:39.125Z,9.00
2023-02-09T09:50:31.376Z,10.43
2023-02-09T09:53:28.853Z,8.93
2023-02-09T09:56:19.590Z,9.85
2023-02-09T09:59:07.088Z,9.85
2023-02-09T10:01:56.293Z,9.63
2023-02-09T10:04:44.197Z,9.38
2023-02-09T10:07:35.238Z,9.80
2023-02-09T10:10:36.595Z,9.27
2023-02-09T10:13:26.443Z,9.57
2023-02-09T10:16:18.421Z,9.40
2023-02-09T10:19:07.944Z,10.13
2023-02-09T10:21:56.260Z,9.80
2023-02-09T10:24:43.678Z,9.35
2023-02-09T10:27:33.532Z,9.43
2023-02-09T10:30:28.958Z,9.30
2023-02-09T10:33:17.086Z,8.50
2023-02-09T10:36:06.938Z,9.50
2023-02-09T10:39:04.237Z,9.90
2023-02-09T10:41:54.160Z,10.63
2023-02-09T10:44:46.471Z,9.23
2023-02-09T10:47:34.470Z,9.35
2023-02-09T10:50:22.620Z,10.45
2023-02-09T10:53:22.206Z,10.23
2023-02-09T10:56:18.459Z,8.68
2023-02-09T10:59:16.990Z,10.63
2023-02-09T11:02:36.014Z,12.13
2023-02-09T11:05:32.726Z,10.02
2023-02-09T11:08:22.910Z,7.85
2023-02-09T11:11:34.935Z,6.05
2023-02-09T11:14:23.034Z,7.28
2023-02-09T11:17:17.665Z,8.63
2023-02-09T11:20:23.369Z,7.07
2023-02-09T11:23:34.639Z,7.00
2023-02-09T11:26:34.931Z,7.38
2023-02-09T11:29:30.552Z,6.78
2023-02-09T11:32:21.775Z,5.82
2023-02-09T11:35:13.056Z,5.03
2023-02-09T11:38:04.668Z,5.93
2023-02-09T11:40:54.876Z,5.15
2023-02-09T11:43:44.506Z,5.97
2023-02-09T11:46:35.058Z,5.65
2023-02-09T11:49:29.050Z,6.78
2023-02-09T11:52:30.023Z,8.02
2023-02-09T11:55:28.158Z,7.78
2023-02-09T11:58:32.618Z,7.45
2023-02-09T12:01:28.819Z,6.72
2023-02-09T12:04:22.446Z,5.90
2023-02-09T12:07:17.053Z,6.43
2023-02-09T12:10:16.513Z,8.90
2023-02-09T12:13:14.267Z,8.18
2023-02-09T12:16:05.811Z,8.95
2023-02-09T12:18:55.631Z,10.60
2023-02-09T12:21:43.180Z,9.48
2023-02-09T12:24:40.538Z,9.68
2023-02-09T12:27:28.711Z,9.15
2023-02-09T12:30:53.891Z,9.25
2023-02-09T12:34:02.382Z,9.70
2023-02-09T12:37:28.424Z,9.55
2023-02-09T12:40:37.023Z,9.45
2023-02-09T12:43:33.929Z,6.65
2023-02-09T12:46:24.820Z,7.70
2023-02-09T12:49:21.258Z,8.32
2023-02-09T12:52:17.122Z,9.15
2023-02-09T12:55:24.881Z,8.52
2023-02-09T12:58:54.325Z,8.73
2023-02-09T13:02:15.907Z,7.93
2023-02-09T13:05:05.485Z,7.25
2023-02-09T13:07:59.013Z,8.30
2023-02-09T13:10:54.448Z,9.07
2023-02-09T13:13:50.682Z,8.00
2023-02-09T13:17:16.535Z,8.63
2023-02-09T13:20:19.935Z,9.05
2023-02-09T13:23:33.278Z,8.55
2023-02-09T13:26:23.619Z,8.02
2023-02-09T13:29:21.239Z,7.30
2023-02-09T13:32:21.376Z,5.55
2023-02-09T13:35:17.620Z,6.05
2023-02-09T13:38:16.697Z,6.07
2023-02-09T13:41:07.349Z,5.05
2023-02-09T13:43:54.870Z,6.13
2023-02-09T13:46:53.212Z,6.30
2023-02-09T13:49:41.093Z,7.13
2023-02-09T13:52:36.353Z,6.15
2023-02-09T13:55:28.379Z,7.30
2023-02-09T13:58:20.499Z,6.80
2023-02-09T14:01:14.005Z,7.10
2023-02-09T14:04:12.256Z,7.15
2023-02-09T14:07:03.662Z,7.10
2023-02-09T14:09:58.104Z,6.85
2023-02-09T14:12:56.646Z,7.18
2023-02-09T14:16:05.550Z,7.53
2023-02-09T14:18:54.465Z,7.63
2023-02-09T14:21:47.372Z,8.40
2023-02-09T14:24:45.334Z,7.30
2023-02-09T14:27:40.298Z,7.97
2023-02-09T14:30:32.147Z,8.77
2023-02-09T14:33:24.990Z,7.80
2023-02-09T14:36:23.634Z,7.93
2023-02-09T14:39:20.145Z,7.32
2023-02-09T14:42:19.095Z,8.10
2023-02-09T14:45:32.269Z,7.95
2023-02-09T14:48:21.467Z,8.20
2023-02-09T14:51:14.209Z,8.52
2023-02-09T14:54:02.253Z,8.18
2023-02-09T14:56:51.790Z,9.02
2023-02-09T14:59:39.198Z,8.77
2023-02-09T15:02:28.359Z,8.57
2023-02-09T15:05:16.954Z,9.45
2023-02-09T15:08:08.957Z,9.30
2023-02-09T15:11:00.588Z,9.60
2023-02-09T15:13:49.449Z,10.15
2023-02-09T15:16:37.072Z,9.90
2023-02-09T15:19:24.791Z,9.98
2023-02-09T15:22:15.413Z,9.55
2023-02-09T15:25:03.028Z,10.65
2023-02-09T15:27:53.897Z,12.65
2023-02-09T15:30:42.679Z,12.65
2023-02-09T15:33:30.936Z,11.63
2023-02-09T15:36:20.874Z,10.00
2023-02-09T15:39:17.974Z,10.80
2023-02-09T15:42:28.724Z,10.82
2023-02-09T15:45:36.884Z,11.25
2023-02-09T15:48:25.664Z,10.65
2023-02-09T15:51:13.340Z,10.75
2023-02-09T15:54:03.341Z,10.55
2023-02-09T15:56:51.152Z,10.80
2023-02-09T15:59:38.962Z,10.40
2023-02-09T16:02:27.123Z,10.00
2023-02-09T16:05:16.493Z,12.55
2023-02-09T16:08:04.036Z,11.60
2023-02-09T16:10:52.306Z,11.95
2023-02-09T16:13:39.950Z,11.10
2023-02-09T16:16:28.198Z,14.05
2023-02-09T16:19:16.865Z,11.80
2023-02-09T16:22:08.268Z,13.15
2023-02-09T16:24:55.695Z,13.60
2023-02-09T16:27:43.354Z,12.40
2023-02-09T16:30:34.810Z,10.75
2023-02-09T16:33:23.577Z,11.93
2023-02-09T16:36:15.552Z,11.50
2023-02-09T16:39:04.636Z,12.15
2023-02-09T16:41:53.084Z,13.02
2023-02-09T16:44:40.678Z,13.35
2023-02-09T16:47:29.466Z,12.20
2023-02-09T16:50:24.032Z,12.48
2023-02-09T16:53:17.561Z,12.60
2023-02-09T16:56:10.259Z,14.05
2023-02-09T16:58:57.956Z,14.32
2023-02-09T17:01:47.568Z,15.63
2023-02-09T17:04:37.884Z,13.65
2023-02-09T17:07:31.348Z,14.55
2023-02-09T17:10:20.452Z,16.67
2023-02-09T17:13:09.314Z,15.00
2023-02-09T17:16:00.351Z,15.35
2023-02-09T17:18:50.472Z,14.27
2023-02-09T17:21:40.972Z,13.50
2023-02-09T17:24:28.618Z,13.20
2023-02-09T17:27:16.677Z,13.93
2023-02-09T17:30:06.057Z,12.38
2023-02-09T17:33:00.319Z,13.20
2023-02-09T17:36:22.570Z,13.15
2023-02-09T17:38:56.372Z,12.43
2023-02-09T17:41:45.436Z,14.55
2023-02-09T17:44:45.585Z,14.27
2023-02-09T17:47:35.466Z,14.27
2023-02-09T17:50:25.099Z,16.70
2023-02-09T17:53:16.630Z,15.73
2023-02-09T17:56:04.998Z,14.60
2023-02-09T17:58:52.449Z,13.95
2023-02-09T18:01:42.065Z,14.15
2023-02-09T18:04:32.874Z,13.85
2023-02-09T18:07:20.920Z,14.32
2023-02-09T18:10:09.112Z,14.73
2023-02-09T18:12:57.433Z,15.55
2023-02-09T18:15:45.427Z,16.15
2023-02-09T18:18:33.035Z,16.58
2023-02-09T18:21:21.736Z,15.45
2023-02-09T18:24:11.120Z,14.45
2023-02-09T18:26:59.056Z,14.45
2023-02-09T18:29:46.407Z,16.17
2023-02-09T18:32:33.893Z,15.65
2023-02-09T18:35:23.429Z,15.60
2023-02-09T18:38:15.477Z,16.08
2023-02-09T18:41:03.514Z,14.55
2023-02-09T18:43:53.302Z,14.38
2023-02-09T18:46:43.704Z,17.67
2023-02-09T18:49:31.208Z,17.20
2023-02-09T18:52:20.902Z,14.98
2023-02-09T18:55:10.164Z,14.82
2023-02-09T18:57:58.974Z,14.38
2023-02-09T19:00:46.569Z,14.40
2023-02-09T19:03:34.335Z,14.75
2023-02-09T19:06:22.877Z,15.15
2023-02-09T19:09:10.334Z,14.00
2023-02-09T19:11:59.413Z,14.75
2023-02-09T19:14:47.864Z,16.42
2023-02-09T19:17:35.655Z,18.17
2023-02-09T19:20:26.386Z,13.70
2023-02-09T19:23:14.108Z,13.88
2023-02-09T19:26:06.582Z,17.13
2023-02-09T19:28:57.421Z,20.88
2023-02-09T19:31:46.394Z,21.00
2023-02-09T19:34:35.222Z,18.15
2023-02-09T19:37:23.096Z,19.88
2023-02-09T19:40:20.950Z,19.10
2023-02-09T19:43:08.612Z,17.02
2023-02-09T19:46:00.710Z,13.55
2023-02-09T19:48:48.508Z,13.98
2023-02-09T19:51:36.457Z,15.27
2023-02-09T19:54:24.159Z,12.52
2023-02-09T19:57:12.116Z,13.25
2023-02-09T19:59:59.857Z,15.43
2023-02-09T20:02:49.136Z,16.58
2023-02-09T20:05:40.300Z,14.38
2023-02-09T20:08:27.580Z,12.82
2023-02-09T20:11:18.525Z,12.80
2023-02-09T20:14:06.577Z,13.13
2023-02-09T20:16:54.717Z,12.02
2023-02-09T20:19:43.933Z,14.27
2023-02-09T20:22:31.841Z,15.70
2023-02-09T20:25:19.845Z,16.10
2023-02-09T20:28:07.842Z,19.23
2023-02-09T20:30:55.569Z,17.40
2023-02-09T20:33:43.318Z,21.23
2023-02-09T20:36:32.308Z,19.35
2023-02-09T20:39:19.889Z,19.33
2023-02-09T20:42:24.979Z,18.70
2023-02-09T20:45:33.015Z,18.23
2023-02-09T20:48:20.988Z,15.15
2023-02-09T20:51:08.689Z,16.35
2023-02-09T20:53:57.988Z,16.73
2023-02-09T20:56:45.827Z,15.77
2023-02-09T20:59:34.171Z,16.42
2023-02-09T21:02:21.733Z,15.82
2023-02-09T21:05:10.025Z,14.20
2023-02-09T21:07:57.720Z,13.50
2023-02-09T21:10:47.159Z,14.43
2023-02-09T21:13:36.804Z,16.73
2023-02-09T21:16:25.650Z,22.45
2023-02-09T21:19:13.251Z,20.48
2023-02-09T21:22:00.920Z,16.33
2023-02-09T21:24:48.588Z,13.98
2023-02-09T21:27:37.688Z,13.40
2023-02-09T21:30:25.519Z,11.55
2023-02-09T21:33:13.330Z,13.02
2023-02-09T21:36:01.020Z,12.98
2023-02-09T21:38:48.865Z,11.93
2023-02-09T21:41:54.173Z,13.98
2023-02-09T21:44:43.162Z,13.90
2023-02-09T21:47:32.594Z,15.30
2023-02-09T21:50:21.185Z,17.63
2023-02-09T21:53:08.878Z,16.58
2023-02-09T21:55:56.466Z,16.48
2023-02-09T21:58:44.525Z,16.17
2023-02-09T22:01:33.657Z,16.70
2023-02-09T22:04:21.095Z,15.80
2023-02-09T22:07:08.893Z,16.25
2023-02-09T22:09:56.723Z,15.88
2023-02-09T22:12:44.439Z,14.98
2023-02-09T22:15:31.769Z,14.15
2023-02-09T22:18:20.740Z,15.77
2023-02-09T22:21:09.204Z,15.75
2023-02-09T22:23:56.793Z,12.35
2023-02-09T22:26:44.194Z,13.13
2023-02-09T22:29:33.280Z,13.27
2023-02-09T22:32:21.275Z,14.73
2023-02-09T22:35:10.229Z,16.17
2023-02-09T22:37:57.862Z,15.18
2023-02-09T22:40:45.517Z,15.10
2023-02-09T22:43:35.857Z,15.85
2023-02-09T22:46:25.617Z,16.95
2023-02-09T22:49:17.136Z,17.55
2023-02-09T22:52:06.688Z,16.50
2023-02-09T22:54:54.507Z,16.95
2023-02-09T22:57:41.901Z,17.90
2023-02-09T23:00:29.646Z,17.40
2023-02-09T23:03:17.206Z,17.13
2023-02-09T23:06:05.052Z,16.02
2023-02-09T23:08:56.282Z,13.63
2023-02-09T23:11:44.398Z,15.10
2023-02-09T23:14:31.897Z,14.82
2023-02-09T23:17:19.361Z,16.23
2023-02-09T23:20:07.724Z,15.43
2023-02-09T23:22:56.440Z,15.00
2023-02-09T23:25:45.750Z,13.93
2023-02-09T23:28:33.835Z,15.23
2023-02-09T23:31:21.652Z,14.60
2023-02-09T23:34:09.286Z,14.48
2023-02-09T23:37:04.951Z,14.38
2023-02-09T23:40:00.789Z,14.57
2023-02-09T23:42:49.863Z,15.38
2023-02-09T23:45:37.575Z,14.75
2023-02-09T23:48:25.094Z,15.00
2023-02-09T23:51:15.264Z,15.20
2023-02-09T23:54:06.377Z,15.43
2023-02-09T23:56:54.165Z,13.50
2023-02-09T23:59:43.276Z,14.02
